createdAt,value
2023-05-07T00:00:12.783Z,101437.59
2023-05-07T00:02:40.140Z,101426.16
2023-05-07T00:05:08.777Z,101434.94
2023-05-07T00:07:36.727Z,101440.22
2023-05-07T00:10:05.297Z,101428.75
2023-05-07T00:12:34.804Z,101418.25
2023-05-07T00:15:05.214Z,101416.56
2023-05-07T00:17:34.536Z,101407.72
2023-05-07T00:20:02.724Z,101400.69
2023-05-07T00:22:31.388Z,101415.63
2023-05-07T00:24:58.461Z,101426.19
2023-05-07T00:27:26.292Z,101416.50
2023-05-07T00:29:56.636Z,101423.53
2023-05-07T00:32:24.743Z,101434.94
2023-05-07T00:34:52.199Z,101438.47
2023-05-07T00:37:19.470Z,101445.47
2023-05-07T00:39:46.503Z,101449.88
2023-05-07T00:42:13.750Z,101456.00
2023-05-07T00:44:40.903Z,101463.88
2023-05-07T00:47:08.522Z,101464.84
2023-05-07T00:49:43.947Z,101466.59
2023-05-07T00:52:18.406Z,101469.19
2023-05-07T00:54:45.935Z,101467.44
2023-05-07T00:57:13.284Z,101471.84
2023-05-07T00:59:41.922Z,101490.31
2023-05-07T01:02:09.349Z,101497.31
2023-05-07T01:04:36.941Z,101491.19
2023-05-07T01:07:05.927Z,101499.97
2023-05-07T01:09:33.256Z,101497.31
2023-05-07T01:12:00.899Z,101510.50
2023-05-07T01:14:28.460Z,101500.84
2023-05-07T01:16:56.020Z,101496.41
2023-05-07T01:19:25.684Z,101511.34
2023-05-07T01:22:01.347Z,101509.63
2023-05-07T01:24:31.293Z,101518.41
2023-05-07T01:26:58.579Z,101526.31
2023-05-07T01:29:25.904Z,101537.72
2023-05-07T01:31:54.230Z,101532.44
2023-05-07T01:34:23.040Z,101535.13
2023-05-07T01:36:50.974Z,101541.22
2023-05-07T01:39:18.502Z,101528.94
2023-05-07T01:41:47.315Z,101521.03
2023-05-07T01:44:16.140Z,101535.97
2023-05-07T01:46:43.775Z,101530.72
2023-05-07T01:49:11.490Z,101527.19
2023-05-07T01:51:38.771Z,101540.38
2023-05-07T01:54:06.501Z,101544.75
2023-05-07T01:56:34.885Z,101535.97
2023-05-07T01:59:03.259Z,101524.56
2023-05-07T02:01:31.152Z,101521.00
2023-05-07T02:03:58.840Z,101535.94
2023-05-07T02:06:28.711Z,101536.88
2023-05-07T02:09:00.789Z,101536.84
2023-05-07T02:11:28.866Z,101541.25
2023-05-07T02:13:55.914Z,101537.72
2023-05-07T02:16:24.461Z,101534.16
2023-05-07T02:18:52.474Z,101537.75
2023-05-07T02:21:19.865Z,101544.75
2023-05-07T02:23:46.996Z,101550.03
2023-05-07T02:26:14.218Z,101542.13
2023-05-07T02:28:41.369Z,101543.00
2023-05-07T02:31:08.575Z,101533.34
2023-05-07T02:33:37.608Z,101540.38
2023-05-07T02:36:11.849Z,101534.22
2023-05-07T02:38:51.411Z,101536.88
2023-05-07T02:41:20.845Z,101534.22
2023-05-07T02:43:50.305Z,101537.69
2023-05-07T02:46:18.433Z,101540.31
2023-05-07T02:48:50.283Z,101525.41
2023-05-07T02:51:23.320Z,101532.44
2023-05-07T02:53:52.309Z,101526.28
2023-05-07T02:56:19.585Z,101527.19
2023-05-07T02:58:46.764Z,101536.81
2023-05-07T03:01:16.065Z,101523.69
2023-05-07T03:04:03.562Z,101521.88
2023-05-07T03:06:30.836Z,101523.66
2023-05-07T03:08:57.842Z,101516.63
2023-05-07T03:11:27.340Z,101520.16
2023-05-07T03:13:54.503Z,101517.50
2023-05-07T03:16:22.783Z,101510.50
2023-05-07T03:18:50.018Z,101530.69
2023-05-07T03:21:17.246Z,101513.97
2023-05-07T03:23:45.009Z,101508.75
2023-05-07T03:26:12.328Z,101509.59
2023-05-07T03:28:39.704Z,101517.50
2023-05-07T03:31:11.314Z,101519.25
2023-05-07T03:33:50.387Z,101505.19
2023-05-07T03:36:17.374Z,101493.78
2023-05-07T03:38:44.437Z,101486.75
2023-05-07T03:41:11.859Z,101472.72
2023-05-07T03:43:39.672Z,101455.13
2023-05-07T03:46:10.509Z,101457.81
2023-05-07T03:48:37.623Z,101458.66
2023-05-07T03:51:05.193Z,101463.03
2023-05-07T03:53:34.027Z,101464.81
2023-05-07T03:56:01.361Z,101467.44
2023-05-07T03:58:36.110Z,101468.31
2023-05-07T04:01:08.742Z,101464.81
2023-05-07T04:03:36.262Z,101475.31
2023-05-07T04:06:04.873Z,101467.47
2023-05-07T04:08:34.929Z,101463.94
2023-05-07T04:11:02.459Z,101458.66
2023-05-07T04:13:32.473Z,101472.72
2023-05-07T04:16:03.689Z,101463.94
2023-05-07T04:18:31.008Z,101471.84
2023-05-07T04:20:58.598Z,101478.81
2023-05-07T04:23:25.865Z,101478.84
2023-05-07T04:25:53.729Z,101477.97
2023-05-07T04:28:25.675Z,101470.91
2023-05-07T04:30:52.948Z,101482.31
2023-05-07T04:33:21.700Z,101476.22
2023-05-07T04:35:50.605Z,101485.88
2023-05-07T04:38:17.658Z,101483.22
2023-05-07T04:40:46.095Z,101484.97
2023-05-07T04:43:17.334Z,101494.63
2023-05-07T04:45:51.992Z,101503.41
2023-05-07T04:48:21.595Z,101508.69
2023-05-07T04:50:53.974Z,101506.94
2023-05-07T04:53:22.587Z,101513.91
2023-05-07T04:55:56.824Z,101506.06
2023-05-07T04:58:25.334Z,101510.44
2023-05-07T05:00:53.323Z,101518.34
2023-05-07T05:03:23.504Z,101520.06
2023-05-07T05:05:52.747Z,101520.09
2023-05-07T05:08:21.191Z,101521.00
2023-05-07T05:10:50.009Z,101526.25
2023-05-07T05:13:17.278Z,101528.88
2023-05-07T05:15:44.680Z,101531.50
2023-05-07T05:18:11.986Z,101539.41
2023-05-07T05:20:40.157Z,101544.72
2023-05-07T05:23:09.243Z,101551.69
2023-05-07T05:25:38.446Z,101542.91
2023-05-07T05:28:05.847Z,101545.59
2023-05-07T05:30:34.587Z,101546.44
2023-05-07T05:33:02.787Z,101552.59
2023-05-07T05:35:30.949Z,101557.84
2023-05-07T05:37:59.262Z,101566.63
2023-05-07T05:40:26.336Z,101571.03
2023-05-07T05:42:54.172Z,101574.56
2023-05-07T05:45:21.377Z,101565.78
2023-05-07T05:50:15.452Z,101567.53
2023-05-07T05:52:43.207Z,101580.69
2023-05-07T05:55:10.873Z,101578.94
2023-05-07T05:57:39.201Z,101584.22
2023-05-07T06:00:07.605Z,101590.38
2023-05-07T06:02:46.073Z,101589.50
2023-05-07T06:05:18.284Z,101592.13
2023-05-07T06:07:48.687Z,101595.66
2023-05-07T06:10:16.487Z,101601.84
2023-05-07T06:12:43.654Z,101607.13
2023-05-07T06:15:11.634Z,101604.47
2023-05-07T06:17:39.212Z,101606.25
2023-05-07T06:20:07.932Z,101607.16
2023-05-07T06:22:35.101Z,101594.84
2023-05-07T06:25:02.440Z,101601.88
2023-05-07T06:27:29.581Z,101605.38
2023-05-07T06:29:57.482Z,101600.97
2023-05-07T06:32:24.573Z,101604.47
2023-05-07T06:34:52.774Z,101604.47
2023-05-07T06:37:20.057Z,101614.16
2023-05-07T06:39:53.246Z,101622.94
2023-05-07T06:42:20.748Z,101629.03
2023-05-07T06:44:49.353Z,101639.63
2023-05-07T06:47:18.340Z,101639.59
2023-05-07T06:49:49.858Z,101644.00
2023-05-07T06:52:19.077Z,101653.66
2023-05-07T06:54:47.862Z,101662.44
2023-05-07T06:57:17.429Z,101658.91
2023-05-07T06:59:44.664Z,101654.56
2023-05-07T07:02:12.179Z,101653.66
2023-05-07T07:04:39.790Z,101665.97
2023-05-07T07:07:10.256Z,101665.13
2023-05-07T07:09:37.717Z,101670.41
2023-05-07T07:12:06.460Z,101668.66
2023-05-07T07:14:35.344Z,101667.78
2023-05-07T07:17:02.569Z,101669.53
2023-05-07T07:19:29.919Z,101678.34
2023-05-07T07:21:58.161Z,101673.03
2023-05-07T07:24:25.265Z,101678.34
2023-05-07T07:26:56.919Z,101679.19
2023-05-07T07:29:27.913Z,101673.06
2023-05-07T07:31:56.335Z,101676.56
2023-05-07T07:34:24.454Z,101681.00
2023-05-07T07:36:51.869Z,101679.19
2023-05-07T07:39:20.290Z,101683.63
2023-05-07T07:41:50.531Z,101686.22
2023-05-07T07:44:19.304Z,101680.97
2023-05-07T07:46:52.061Z,101681.88
2023-05-07T07:49:21.047Z,101695.06
2023-05-07T07:51:48.606Z,101696.78
2023-05-07T07:54:16.933Z,101699.44
2023-05-07T07:56:44.621Z,101692.41
2023-05-07T07:59:15.007Z,101683.59
2023-05-07T08:01:42.869Z,101688.00
2023-05-07T08:04:10.419Z,101680.09
2023-05-07T08:06:41.716Z,101667.78
2023-05-07T08:09:10.572Z,101666.88
2023-05-07T08:11:40.344Z,101675.66
2023-05-07T08:14:07.865Z,101687.06
2023-05-07T08:16:35.769Z,101681.81
2023-05-07T08:19:03.911Z,101673.00
2023-05-07T08:21:34.308Z,101665.94
2023-05-07T08:24:02.717Z,101660.59
2023-05-07T08:26:30.183Z,101670.31
2023-05-07T08:28:57.551Z,101667.69
2023-05-07T08:31:25.492Z,101667.63
2023-05-07T08:33:52.940Z,101679.13
2023-05-07T08:36:20.492Z,101675.50
2023-05-07T08:38:48.675Z,101690.50
2023-05-07T08:41:19.140Z,101699.34
2023-05-07T08:43:51.005Z,101705.47
2023-05-07T08:46:23.030Z,101706.28
2023-05-07T08:48:54.990Z,101710.66
2023-05-07T08:51:23.136Z,101710.72
2023-05-07T08:53:51.461Z,101713.13
2023-05-07T08:56:26.356Z,101712.19
2023-05-07T08:59:00.224Z,101717.47
2023-05-07T09:01:29.661Z,101711.28
2023-05-07T09:03:58.993Z,101721.84
2023-05-07T09:06:28.767Z,101721.06
2023-05-07T09:08:56.843Z,101720.28
2023-05-07T09:11:28.147Z,101717.56
2023-05-07T09:14:02.810Z,101721.91
2023-05-07T09:16:35.760Z,101733.16
2023-05-07T09:19:03.987Z,101726.72
2023-05-07T09:21:31.363Z,101727.19
2023-05-07T09:24:01.785Z,101727.09
2023-05-07T09:26:36.120Z,101731.25
2023-05-07T09:29:05.595Z,101723.59
2023-05-07T09:31:32.983Z,101723.69
2023-05-07T09:34:02.179Z,101732.63
2023-05-07T09:36:34.269Z,101712.84
2023-05-07T09:39:02.909Z,101718.72
2023-05-07T09:41:33.758Z,101715.63
2023-05-07T09:44:13.574Z,101717.81
2023-05-07T09:46:48.586Z,101709.84
2023-05-07T09:49:26.316Z,101710.19
2023-05-07T09:52:02.575Z,101700.50
2023-05-07T09:54:39.174Z,101700.84
2023-05-07T09:57:10.775Z,101709.25
2023-05-07T09:59:39.961Z,101706.16
2023-05-07T10:02:11.788Z,101714.97
2023-05-07T10:04:50.378Z,101729.81
2023-05-07T10:07:22.672Z,101734.38
2023-05-07T10:09:54.726Z,101729.50
2023-05-07T10:12:40.204Z,101722.47
2023-05-07T10:15:14.272Z,101728.34
2023-05-07T10:17:46.191Z,101720.31
2023-05-07T10:20:14.230Z,101720.13
2023-05-07T10:22:48.858Z,101726.06
2023-05-07T10:25:24.492Z,101724.34
2023-05-07T10:27:53.374Z,101718.84
2023-05-07T10:30:47.805Z,101724.63
2023-05-07T10:33:18.697Z,101718.13
2023-05-07T10:35:52.285Z,101715.50
2023-05-07T10:38:20.227Z,101717.72
2023-05-07T10:40:48.698Z,101711.47
2023-05-07T10:43:19.384Z,101707.75
2023-05-07T10:46:17.972Z,101714.19
2023-05-07T10:49:09.997Z,101710.84
2023-05-07T10:52:27.878Z,101714.97
2023-05-07T10:55:20.134Z,101709.03
2023-05-07T10:58:32.409Z,101713.41
2023-05-07T11:01:11.310Z,101706.25
2023-05-07T11:04:16.973Z,101705.09
2023-05-07T11:07:10.745Z,101702.75
2023-05-07T11:09:53.545Z,101697.47
2023-05-07T11:12:38.227Z,101692.94
2023-05-07T11:15:17.188Z,101696.41
2023-05-07T11:18:01.035Z,101702.47
2023-05-07T11:21:00.345Z,101700.34
2023-05-07T11:23:48.564Z,101701.09
2023-05-07T11:26:22.876Z,101707.16
2023-05-07T11:28:50.830Z,101711.97
2023-05-07T11:31:25.600Z,101709.28
2023-05-07T11:33:54.737Z,101713.28
2023-05-07T11:36:24.770Z,101716.34
2023-05-07T11:38:54.766Z,101718.59
2023-05-07T11:41:23.084Z,101717.66
2023-05-07T11:44:00.844Z,101715.75
2023-05-07T11:46:29.016Z,101714.34
2023-05-07T11:48:57.377Z,101713.31
2023-05-07T11:51:27.229Z,101716.88
2023-05-07T11:53:54.905Z,101717.13
2023-05-07T11:56:22.481Z,101718.97
2023-05-07T11:58:50.811Z,101713.38
2023-05-07T12:01:17.997Z,101712.28
2023-05-07T12:03:47.396Z,101706.44
2023-05-07T12:06:17.037Z,101714.13
2023-05-07T12:08:47.938Z,101716.09
2023-05-07T12:11:25.160Z,101710.06
2023-05-07T12:13:53.128Z,101715.16
2023-05-07T12:16:21.072Z,101712.41
2023-05-07T12:18:48.946Z,101713.81
2023-05-07T12:21:18.430Z,101712.22
2023-05-07T12:23:46.276Z,101706.94
2023-05-07T12:26:13.505Z,101711.28
2023-05-07T12:28:41.136Z,101712.44
2023-05-07T12:31:10.030Z,101706.56
2023-05-07T12:33:37.699Z,101713.75
2023-05-07T12:36:08.695Z,101720.38
2023-05-07T12:38:41.194Z,101714.34
2023-05-07T12:41:10.386Z,101713.47
2023-05-07T12:43:37.879Z,101713.00
2023-05-07T12:46:07.497Z,101719.84
2023-05-07T12:48:35.168Z,101717.06
2023-05-07T12:51:03.478Z,101715.31
2023-05-07T12:53:32.460Z,101708.38
2023-05-07T12:56:01.090Z,101710.84
2023-05-07T12:58:30.838Z,101710.06
2023-05-07T13:01:01.880Z,101717.59
2023-05-07T13:03:37.850Z,101727.50
2023-05-07T13:06:13.355Z,101732.50
2023-05-07T13:08:46.567Z,101741.44
2023-05-07T13:11:14.464Z,101745.09
2023-05-07T13:13:43.012Z,101749.53
2023-05-07T13:16:12.864Z,101742.41
2023-05-07T13:18:42.051Z,101748.47
2023-05-07T13:21:09.223Z,101748.47
2023-05-07T13:23:36.327Z,101743.34
2023-05-07T13:26:08.654Z,101742.47
2023-05-07T13:28:42.205Z,101738.78
2023-05-07T13:31:09.371Z,101728.13
2023-05-07T13:33:36.813Z,101724.47
2023-05-07T13:36:06.066Z,101739.47
2023-05-07T13:38:33.282Z,101736.97
2023-05-07T13:41:01.656Z,101738.78
2023-05-07T13:43:28.884Z,101736.19
2023-05-07T13:45:56.152Z,101728.25
2023-05-07T13:48:23.387Z,101727.25
2023-05-07T13:50:50.389Z,101721.03
2023-05-07T13:53:19.523Z,101728.13
2023-05-07T13:55:46.687Z,101730.47
2023-05-07T13:58:14.806Z,101728.81
2023-05-07T14:00:41.902Z,101736.06
2023-05-07T14:03:12.432Z,101735.03
2023-05-07T14:05:39.874Z,101734.28
2023-05-07T14:08:07.093Z,101726.47
2023-05-07T14:10:38.445Z,101727.25
2023-05-07T14:13:05.669Z,101743.88
2023-05-07T14:15:33.936Z,101732.50
2023-05-07T14:18:01.797Z,101735.84
2023-05-07T14:20:29.558Z,101737.34
2023-05-07T14:22:58.263Z,101728.38
2023-05-07T14:25:25.581Z,101735.31
2023-05-07T14:27:52.920Z,101727.53
2023-05-07T14:30:20.000Z,101731.94
2023-05-07T14:32:47.066Z,101735.56
2023-05-07T14:35:14.498Z,101723.38
2023-05-07T14:37:41.918Z,101718.09
2023-05-07T14:40:12.918Z,101720.47
2023-05-07T14:42:41.467Z,101722.59
2023-05-07T14:45:09.640Z,101719.84
2023-05-07T14:47:36.785Z,101726.94
2023-05-07T14:50:04.025Z,101719.72
2023-05-07T14:52:30.999Z,101711.91
2023-05-07T14:54:58.148Z,101719.94
2023-05-07T14:57:25.493Z,101717.19
2023-05-07T14:59:52.625Z,101723.50
2023-05-07T15:02:21.395Z,101719.78
2023-05-07T15:04:49.864Z,101724.94
2023-05-07T15:07:17.128Z,101722.38
2023-05-07T15:09:44.545Z,101719.72
2023-05-07T15:12:12.843Z,101716.19
2023-05-07T15:14:40.401Z,101718.03
2023-05-07T15:17:08.583Z,101715.56
2023-05-07T15:19:35.710Z,101701.41
2023-05-07T15:22:05.539Z,101711.31
2023-05-07T15:24:32.879Z,101718.38
2023-05-07T15:27:00.336Z,101715.78
2023-05-07T15:29:27.432Z,101716.53
2023-05-07T15:31:54.790Z,101730.06
2023-05-07T15:34:23.654Z,101724.59
2023-05-07T15:36:50.993Z,101735.19
2023-05-07T15:39:18.677Z,101726.28
2023-05-07T15:41:46.553Z,101734.94
2023-05-07T15:44:13.717Z,101743.97
2023-05-07T15:46:40.995Z,101734.13
2023-05-07T15:49:08.664Z,101732.63
2023-05-07T15:51:36.840Z,101737.13
2023-05-07T15:54:04.215Z,101745.03
2023-05-07T15:56:33.997Z,101739.81
2023-05-07T15:59:01.382Z,101731.84
2023-05-07T16:01:29.567Z,101734.47
2023-05-07T16:03:57.185Z,101748.59
2023-05-07T16:06:28.065Z,101749.50
2023-05-07T16:08:55.177Z,101751.94
2023-05-07T16:11:26.800Z,101756.34
2023-05-07T16:13:54.218Z,101764.22
2023-05-07T16:16:21.864Z,101760.56
2023-05-07T16:18:55.328Z,101760.56
2023-05-07T16:21:22.415Z,101764.22
2023-05-07T16:23:50.987Z,101751.13
2023-05-07T16:26:18.617Z,101763.63
2023-05-07T16:28:45.688Z,101760.03
2023-05-07T16:31:12.939Z,101774.19
2023-05-07T16:33:40.064Z,101774.16
2023-05-07T16:36:07.507Z,101782.09
2023-05-07T16:38:34.834Z,101788.25
2023-05-07T16:41:02.344Z,101804.06
2023-05-07T16:43:29.549Z,101806.72
2023-05-07T16:45:56.728Z,101811.16
2023-05-07T16:48:23.922Z,101822.56
2023-05-07T16:50:51.150Z,101816.41
2023-05-07T16:53:18.280Z,101825.22
2023-05-07T16:55:45.497Z,101828.75
2023-05-07T16:58:13.141Z,101836.66
2023-05-07T17:00:49.848Z,101836.63
2023-05-07T17:03:17.968Z,101840.13
2023-05-07T17:05:45.351Z,101843.66
2023-05-07T17:08:16.548Z,101846.25
2023-05-07T17:10:43.803Z,101856.81
2023-05-07T17:13:10.930Z,101862.09
2023-05-07T17:15:38.190Z,101862.06
2023-05-07T17:18:05.344Z,101861.19
2023-05-07T17:20:32.686Z,101851.56
2023-05-07T17:22:59.759Z,101848.94
2023-05-07T17:25:26.817Z,101844.47
2023-05-07T17:27:53.958Z,101847.97
2023-05-07T17:30:21.223Z,101854.13
2023-05-07T17:32:48.349Z,101853.25
2023-05-07T17:35:15.656Z,101838.41
2023-05-07T17:37:47.283Z,101829.53
2023-05-07T17:40:14.593Z,101823.34
2023-05-07T17:42:41.683Z,101823.31
2023-05-07T17:45:09.422Z,101823.38
2023-05-07T17:47:36.913Z,101822.50
2023-05-07T17:50:09.430Z,101829.56
2023-05-07T17:52:41.735Z,101818.97
2023-05-07T17:55:09.464Z,101811.06
2023-05-07T17:57:37.399Z,101824.28
2023-05-07T18:00:08.213Z,101833.94
2023-05-07T18:02:35.721Z,101826.06
2023-05-07T18:05:03.792Z,101820.66
2023-05-07T18:07:30.895Z,101834.78
2023-05-07T18:09:58.286Z,101844.47
2023-05-07T18:12:27.711Z,101851.59
2023-05-07T18:14:58.585Z,101868.31
2023-05-07T18:17:28.797Z,101869.25
2023-05-07T18:19:56.437Z,101875.38
2023-05-07T18:22:32.970Z,101879.78
2023-05-07T18:25:01.847Z,101863.06
2023-05-07T18:27:37.231Z,101845.47
2023-05-07T18:30:04.889Z,101833.13
2023-05-07T18:32:32.646Z,101831.22
2023-05-07T18:35:00.501Z,101831.16
2023-05-07T18:37:31.512Z,101829.47
2023-05-07T18:40:02.035Z,101833.81
2023-05-07T18:42:33.423Z,101835.41
2023-05-07T18:45:02.000Z,101827.63
2023-05-07T18:47:32.239Z,101825.03
2023-05-07T18:50:04.642Z,101832.91
2023-05-07T18:52:35.398Z,101837.31
2023-05-07T18:55:05.140Z,101835.34
2023-05-07T18:57:32.275Z,101822.22
2023-05-07T18:59:59.398Z,101819.53
2023-05-07T19:02:26.598Z,101807.22
2023-05-07T19:04:53.797Z,101808.16
2023-05-07T19:07:21.158Z,101800.09
2023-05-07T19:10:01.211Z,101824.78
2023-05-07T19:12:31.204Z,101829.88
2023-05-07T19:14:58.505Z,101832.47
2023-05-07T19:17:25.687Z,101833.38
2023-05-07T19:19:53.143Z,101836.00
2023-05-07T19:22:20.189Z,101843.09
2023-05-07T19:24:47.542Z,101840.41
2023-05-07T19:27:14.864Z,101851.75
2023-05-07T19:29:44.152Z,101860.69
2023-05-07T19:32:11.389Z,101864.97
2023-05-07T19:34:40.159Z,101872.16
2023-05-07T19:37:07.321Z,101869.41
2023-05-07T19:39:34.625Z,101877.41
2023-05-07T19:42:02.056Z,101884.50
2023-05-07T19:44:29.761Z,101882.53
2023-05-07T19:46:59.451Z,101891.56
2023-05-07T19:49:27.190Z,101901.09
2023-05-07T19:51:54.862Z,101901.13
2023-05-07T19:54:22.770Z,101908.16
2023-05-07T19:56:50.069Z,101918.44
2023-05-07T19:59:17.361Z,101920.13
2023-05-07T20:01:47.739Z,101920.06
2023-05-07T20:04:15.606Z,101922.88
2023-05-07T20:06:44.670Z,101921.22
2023-05-07T20:09:13.099Z,101926.47
2023-05-07T20:11:44.871Z,101929.03
2023-05-07T20:14:13.394Z,101922.72
2023-05-07T20:16:41.285Z,101932.47
2023-05-07T20:19:11.424Z,101936.13
2023-05-07T20:21:38.534Z,101932.72
2023-05-07T20:24:08.514Z,101928.16
2023-05-07T20:29:03.630Z,101951.97
2023-05-07T20:31:32.501Z,101957.31
2023-05-07T20:33:59.964Z,101954.59
2023-05-07T20:36:27.012Z,101966.16
2023-05-07T20:38:54.161Z,101960.94
2023-05-07T20:41:25.681Z,101969.78
2023-05-07T20:43:52.793Z,101980.19
2023-05-07T20:46:23.388Z,101974.25
2023-05-07T20:48:50.961Z,101970.75
2023-05-07T20:51:18.315Z,101961.81
2023-05-07T20:53:47.515Z,101961.97
2023-05-07T20:56:15.769Z,101964.69
2023-05-07T20:58:42.955Z,101975.22
2023-05-07T21:01:10.183Z,101973.28
2023-05-07T21:03:37.372Z,101963.75
2023-05-07T21:06:04.685Z,101962.78
2023-05-07T21:08:32.664Z,101973.47
2023-05-07T21:10:59.720Z,101977.88
2023-05-07T21:13:27.602Z,101976.97
2023-05-07T21:15:54.791Z,101984.00
2023-05-07T21:18:21.946Z,101984.59
2023-05-07T21:20:49.111Z,101980.47
2023-05-07T21:23:16.445Z,101975.16
2023-05-07T21:25:47.310Z,101979.63
2023-05-07T21:28:14.586Z,101985.75
2023-05-07T21:30:41.708Z,101990.19
2023-05-07T21:33:09.163Z,101993.59
2023-05-07T21:35:36.847Z,101993.66
2023-05-07T21:38:04.213Z,101993.72
2023-05-07T21:40:31.746Z,101989.34
2023-05-07T21:43:00.580Z,101995.44
2023-05-07T21:45:27.958Z,101983.19
2023-05-07T21:47:55.648Z,101975.28
2023-05-07T21:50:22.847Z,101981.44
2023-05-07T21:52:50.368Z,101984.09
2023-05-07T21:55:20.841Z,101994.59
2023-05-07T21:58:01.156Z,101991.06
2023-05-07T22:00:32.117Z,101993.75
2023-05-07T22:02:59.276Z,101992.84
2023-05-07T22:05:26.382Z,101993.75
2023-05-07T22:07:53.463Z,101986.78
2023-05-07T22:10:23.131Z,101990.25
2023-05-07T22:12:50.483Z,101982.38
2023-05-07T22:15:18.003Z,101970.03
2023-05-07T22:17:46.416Z,101973.53
2023-05-07T22:20:13.746Z,101967.38
2023-05-07T22:22:53.409Z,101960.31
2023-05-07T22:25:24.909Z,101959.47
2023-05-07T22:27:52.204Z,101957.72
2023-05-07T22:30:19.378Z,101953.31
2023-05-07T22:32:46.641Z,101959.47
2023-05-07T22:35:14.138Z,101967.38
2023-05-07T22:37:41.388Z,101963.00
2023-05-07T22:40:09.114Z,101959.44
2023-05-07T22:42:36.346Z,101955.84
2023-05-07T22:45:03.541Z,101951.50
2023-05-07T22:47:33.891Z,101958.53
2023-05-07T22:50:01.174Z,101970.63
2023-05-07T22:52:28.498Z,101965.38
2023-05-07T22:54:55.778Z,101965.38
2023-05-07T22:57:22.992Z,101964.41
2023-05-07T22:59:55.249Z,101962.72
2023-05-07T23:02:23.051Z,101963.59
2023-05-07T23:04:52.973Z,101965.31
2023-05-07T23:07:20.249Z,101953.09
2023-05-07T23:09:47.426Z,101953.91
2023-05-07T23:12:14.474Z,101960.09
2023-05-07T23:14:41.736Z,101965.38
2023-05-07T23:17:08.903Z,101968.09
2023-05-07T23:19:37.165Z,101966.38
2023-05-07T23:22:04.473Z,101967.06
2023-05-07T23:24:31.587Z,101970.66
2023-05-07T23:26:58.725Z,101965.28
2023-05-07T23:29:25.950Z,101968.00
2023-05-07T23:31:53.063Z,101970.75
2023-05-07T23:34:24.164Z,101965.44
2023-05-07T23:36:51.911Z,101956.75
2023-05-07T23:39:19.680Z,101963.72
2023-05-07T23:41:47.019Z,101955.00
2023-05-07T23:44:16.668Z,101952.31
2023-05-07T23:46:44.771Z,101947.09
2023-05-07T23:49:12.127Z,101944.41
2023-05-07T23:51:39.429Z,101944.41
2023-05-07T23:54:06.883Z,101929.47
2023-05-07T23:56:34.210Z,101921.56
2023-05-07T23:59:01.329Z,101922.34
